Time;durP1;ratioP1;P1;durP2;ratioP2;P2;SDS_P1;SDS_P2;PMS_P1;PMS_P2;Temp;Humidity;BMP_temperature;BMP_pressure;BME280_temperature;BME280_humidity;BME280_pressure;Samples;Min_cycle;Max_cycle;Signal;HPM_P1;HPM_P2
2023/04/10 00:01:45;;;;;;;15.53;10.83;;;4.30;99.90;;;;;;5039135;28;20465;-77
2023/04/10 00:04:12;;;;;;;10.00;7.47;;;4.20;99.90;;;;;;5043630;28;21169;-77
2023/04/10 00:06:40;;;;;;;7.70;6.57;;;4.10;99.90;;;;;;5038422;28;20465;-78
2023/04/10 00:09:07;;;;;;;10.43;8.10;;;4.20;99.90;;;;;;5040905;28;20835;-78
2023/04/10 00:11:35;;;;;;;13.83;10.70;;;4.10;99.90;;;;;;5042370;28;20480;-77
2023/04/10 00:14:03;;;;;;;14.53;9.00;;;4.10;99.90;;;;;;5037963;28;20465;-77
2023/04/10 00:16:30;;;;;;;11.87;10.07;;;4.00;99.90;;;;;;5042494;28;21223;-77
2023/04/10 00:18:57;;;;;;;10.63;8.67;;;3.90;99.90;;;;;;5042331;28;20861;-78
2023/04/10 00:21:25;;;;;;;11.60;10.17;;;3.90;99.90;;;;;;5042295;28;20449;-78
2023/04/10 00:23:52;;;;;;;9.20;8.27;;;3.90;99.90;;;;;;5031448;28;20985;-77
2023/04/10 00:26:19;;;;;;;16.63;11.57;;;3.80;99.90;;;;;;5039934;28;20507;-76
2023/04/10 00:28:46;;;;;;;9.70;7.43;;;3.70;99.90;;;;;;5033260;28;20473;-76
2023/04/10 00:31:15;;;;;;;13.33;9.43;;;3.70;99.90;;;;;;5033130;28;20520;-76
2023/04/10 00:33:42;;;;;;;11.80;8.97;;;3.60;99.90;;;;;;5040818;28;20602;-76
2023/04/10 00:36:09;;;;;;;13.80;9.07;;;3.50;99.90;;;;;;5037813;28;20465;-76
2023/04/10 00:38:36;;;;;;;13.43;9.60;;;3.60;99.90;;;;;;5041995;28;20453;-76
2023/04/10 00:41:04;;;;;;;14.80;10.33;;;3.60;99.90;;;;;;5041168;28;20472;-76
2023/04/10 00:43:32;;;;;;;19.67;11.50;;;3.50;99.90;;;;;;5040202;28;20465;-76
2023/04/10 00:45:59;;;;;;;11.97;9.00;;;3.50;99.90;;;;;;5043025;28;20895;-76
2023/04/10 00:48:27;;;;;;;14.07;10.60;;;3.50;99.90;;;;;;5036002;28;20461;-76
2023/04/10 00:50:54;;;;;;;13.43;9.73;;;3.50;99.90;;;;;;5037101;28;20476;-76
2023/04/10 00:53:22;;;;;;;13.00;9.63;;;3.50;99.90;;;;;;5042728;28;20517;-76
2023/04/10 00:55:50;;;;;;;14.43;9.80;;;3.50;99.90;;;;;;5044074;28;20579;-76
2023/04/10 00:58:17;;;;;;;13.50;8.60;;;3.50;99.90;;;;;;5044656;28;20538;-76
2023/04/10 01:00:44;;;;;;;12.27;8.70;;;3.50;99.90;;;;;;5046248;28;20511;-76
2023/04/10 01:03:12;;;;;;;14.80;9.13;;;3.40;99.90;;;;;;5046220;28;20968;-76
2023/04/10 01:06:00;;;;;;;15.40;9.50;;;3.40;99.90;;;;;;5042679;28;20464;-77
2023/04/10 01:08:37;;;;;;;12.03;7.93;;;3.40;99.90;;;;;;5038718;28;20441;-76
2023/04/10 01:11:10;;;;;;;10.70;7.77;;;3.40;99.90;;;;;;5045767;28;20460;-76
2023/04/10 01:13:43;;;;;;;11.47;7.47;;;3.30;99.90;;;;;;5042270;28;20440;-76
2023/04/10 01:16:18;;;;;;;14.60;9.93;;;3.20;99.90;;;;;;5037116;28;21005;-76
2023/04/10 01:18:53;;;;;;;11.53;8.70;;;3.30;99.90;;;;;;5042191;28;20478;-76
2023/04/10 01:21:22;;;;;;;9.73;7.63;;;3.30;99.90;;;;;;5043611;28;20461;-76
2023/04/10 01:24:21;;;;;;;11.33;9.80;;;3.10;99.90;;;;;;5044805;28;20449;-76
2023/04/10 01:27:08;;;;;;;13.17;9.67;;;3.20;99.90;;;;;;5041816;28;20453;-76
2023/04/10 01:29:41;;;;;;;12.27;8.77;;;3.10;99.90;;;;;;5038765;28;20535;-76
2023/04/10 01:32:11;;;;;;;13.60;8.67;;;3.00;99.90;;;;;;5041021;28;20547;-76
2023/04/10 01:34:43;;;;;;;12.67;9.97;;;3.00;99.90;;;;;;5043830;28;20460;-76
2023/04/10 01:37:16;;;;;;;15.20;8.40;;;3.00;99.90;;;;;;5040240;28;20524;-76
2023/04/10 01:39:45;;;;;;;13.70;9.70;;;2.90;99.90;;;;;;5036765;28;20511;-76
2023/04/10 01:42:15;;;;;;;14.30;8.07;;;2.90;99.90;;;;;;5046232;28;20449;-76
2023/04/10 01:44:46;;;;;;;11.10;9.03;;;2.80;99.90;;;;;;5040319;28;20915;-76
2023/04/10 01:47:15;;;;;;;11.73;8.50;;;2.70;99.90;;;;;;5038929;28;20466;-76
2023/04/10 01:49:46;;;;;;;10.20;7.90;;;2.70;99.90;;;;;;5043103;28;20453;-75
2023/04/10 01:52:15;;;;;;;10.83;8.33;;;2.70;99.90;;;;;;5044072;28;20546;-76
2023/04/10 01:54:44;;;;;;;13.17;9.03;;;2.70;99.90;;;;;;5039101;28;20877;-76
2023/04/10 01:57:13;;;;;;;11.93;7.73;;;2.70;99.90;;;;;;5045041;28;20559;-77
2023/04/10 01:59:40;;;;;;;8.50;7.57;;;2.60;99.90;;;;;;5044558;28;21273;-76
2023/04/10 02:02:10;;;;;;;12.47;8.03;;;2.40;99.90;;;;;;5034664;28;20462;-76
2023/04/10 02:04:37;;;;;;;9.57;6.43;;;2.30;99.90;;;;;;5043316;28;20461;-76
2023/04/10 02:07:07;;;;;;;11.53;9.20;;;2.20;99.90;;;;;;5040252;28;20453;-76
2023/04/10 02:09:44;;;;;;;10.40;7.83;;;2.10;99.90;;;;;;5041515;28;20500;-76
2023/04/10 02:12:16;;;;;;;9.87;7.93;;;2.00;99.90;;;;;;5046148;28;20588;-76
2023/04/10 02:14:46;;;;;;;11.70;7.23;;;2.00;99.90;;;;;;5031021;28;20461;-75
2023/04/10 02:17:20;;;;;;;9.40;6.37;;;1.90;99.90;;;;;;5041195;28;20963;-75
2023/04/10 02:19:48;;;;;;;13.70;8.70;;;1.90;99.90;;;;;;5041494;28;20556;-76
2023/04/10 02:22:16;;;;;;;11.80;7.40;;;2.00;99.90;;;;;;5038909;28;20487;-76
2023/04/10 02:24:44;;;;;;;13.20;9.13;;;2.00;99.90;;;;;;5037437;28;20462;-76
2023/04/10 02:27:11;;;;;;;8.53;7.63;;;1.90;99.90;;;;;;5041259;28;20485;-76
2023/04/10 02:29:38;;;;;;;12.60;7.37;;;1.80;99.90;;;;;;5038066;28;20783;-76
2023/04/10 02:32:05;;;;;;;11.47;8.60;;;1.90;99.90;;;;;;5044100;28;21248;-76
2023/04/10 02:34:33;;;;;;;13.30;7.30;;;1.80;99.90;;;;;;5044572;28;20921;-76
2023/04/10 02:37:00;;;;;;;11.90;8.40;;;1.80;99.90;;;;;;5034452;28;20461;-76
2023/04/10 02:39:27;;;;;;;7.50;5.47;;;1.80;99.90;;;;;;5038745;28;20469;-76
2023/04/10 02:41:55;;;;;;;11.20;8.60;;;1.70;99.90;;;;;;5030241;28;20469;-76
2023/04/10 02:44:22;;;;;;;10.53;8.63;;;1.60;99.90;;;;;;5036810;28;20504;-76
2023/04/10 02:46:49;;;;;;;13.23;8.63;;;1.60;99.90;;;;;;5046494;28;20462;-76
2023/04/10 02:49:16;;;;;;;11.60;7.13;;;1.50;99.90;;;;;;5051463;28;20976;-76
2023/04/10 02:51:44;;;;;;;12.80;7.95;;;1.50;99.90;;;;;;5039654;28;20468;-76
2023/04/10 02:54:11;;;;;;;13.70;9.37;;;1.40;99.90;;;;;;5042976;28;20461;-75
2023/04/10 02:56:38;;;;;;;15.00;8.10;;;1.30;99.90;;;;;;5038295;28;20519;-76
2023/04/10 02:59:05;;;;;;;11.00;8.33;;;1.30;99.90;;;;;;5047965;28;20517;-76
2023/04/10 03:01:32;;;;;;;12.20;8.33;;;1.40;99.90;;;;;;5038466;28;20517;-76
2023/04/10 03:03:59;;;;;;;10.70;7.40;;;1.40;99.90;;;;;;5039497;28;20454;-76
2023/04/10 03:06:26;;;;;;;17.47;8.60;;;1.40;99.90;;;;;;5040060;28;20445;-76
2023/04/10 03:08:55;;;;;;;14.10;8.20;;;1.40;99.90;;;;;;5043207;28;20453;-76
2023/04/10 03:11:22;;;;;;;11.90;8.13;;;1.40;99.90;;;;;;5041063;28;20457;-76
2023/04/10 03:13:49;;;;;;;14.37;9.57;;;1.40;99.90;;;;;;5041103;28;20563;-76
2023/04/10 03:16:17;;;;;;;11.43;7.97;;;1.40;99.90;;;;;;5040217;28;20469;-75
2023/04/10 03:18:44;;;;;;;14.97;8.63;;;1.20;99.90;;;;;;5045566;28;20556;-75
2023/04/10 03:21:11;;;;;;;16.33;9.33;;;1.20;99.90;;;;;;5030715;28;20477;-75
2023/04/10 03:23:38;;;;;;;13.23;8.90;;;1.10;99.90;;;;;;5042821;28;20469;-76
2023/04/10 03:26:07;;;;;;;16.20;8.60;;;1.10;99.90;;;;;;5036630;28;20465;-76
2023/04/10 03:28:35;;;;;;;26.93;9.20;;;1.10;99.90;;;;;;5041034;28;20483;-76
2023/04/10 03:31:03;;;;;;;27.27;11.37;;;1.10;99.90;;;;;;5040783;28;20457;-76
2023/04/10 03:33:29;;;;;;;14.87;8.43;;;1.10;99.90;;;;;;5041623;28;20485;-76
2023/04/10 03:35:57;;;;;;;20.20;7.63;;;0.90;99.90;;;;;;5043127;28;20458;-76
2023/04/10 03:38:24;;;;;;;25.10;9.23;;;1.00;99.90;;;;;;5038868;28;20559;-75
2023/04/10 03:40:52;;;;;;;77.73;15.93;;;1.20;99.90;;;;;;5041348;28;20878;-76
2023/04/10 03:43:21;;;;;;;123.27;18.00;;;1.30;99.90;;;;;;5038427;28;20541;-75
2023/04/10 03:45:48;;;;;;;51.63;14.87;;;1.30;99.90;;;;;;5042600;28;20479;-75
2023/04/10 03:48:15;;;;;;;89.47;17.77;;;1.30;99.90;;;;;;5044586;28;20468;-76
2023/04/10 03:50:42;;;;;;;60.27;11.83;;;1.30;99.90;;;;;;5040332;28;20472;-76
2023/04/10 03:53:09;;;;;;;36.27;11.63;;;1.30;99.90;;;;;;5039025;28;20529;-76
2023/04/10 03:55:37;;;;;;;10.40;7.13;;;1.20;99.90;;;;;;5045159;28;20469;-75
2023/04/10 03:58:04;;;;;;;13.60;7.40;;;1.20;99.90;;;;;;5040124;28;20501;-75
2023/04/10 04:00:33;;;;;;;13.20;7.50;;;1.10;99.90;;;;;;5042864;28;20457;-75
2023/04/10 04:03:03;;;;;;;19.37;9.00;;;1.10;99.90;;;;;;5041124;28;20545;-75
2023/04/10 04:05:30;;;;;;;12.43;8.17;;;1.00;99.90;;;;;;5044291;28;20460;-75
2023/04/10 04:07:57;;;;;;;11.03;7.97;;;0.90;99.90;;;;;;5040463;28;20575;-75
2023/04/10 04:10:25;;;;;;;10.90;7.13;;;0.80;99.90;;;;;;5043518;28;20523;-75
2023/04/10 04:12:52;;;;;;;11.20;7.60;;;0.80;99.90;;;;;;5050606;28;20480;-75
2023/04/10 04:15:21;;;;;;;11.90;7.77;;;0.80;99.90;;;;;;5040512;28;20489;-75
2023/04/10 04:17:49;;;;;;;10.73;7.43;;;0.70;99.90;;;;;;5040064;28;20465;-76
2023/04/10 04:20:16;;;;;;;14.40;8.80;;;0.60;99.90;;;;;;5036931;28;20545;-76
2023/04/10 04:22:43;;;;;;;13.60;8.10;;;0.60;99.90;;;;;;5041209;28;20453;-76
2023/04/10 04:25:10;;;;;;;12.57;6.40;;;0.70;99.90;;;;;;5050368;28;20470;-75
2023/04/10 04:27:37;;;;;;;14.10;7.97;;;0.70;99.90;;;;;;5046009;28;20563;-76
2023/04/10 04:30:05;;;;;;;12.73;7.53;;;0.60;99.90;;;;;;5045027;28;20488;-75
2023/04/10 04:32:32;;;;;;;11.60;8.30;;;0.60;99.90;;;;;;5043649;28;20480;-76
2023/04/10 04:35:01;;;;;;;10.60;6.90;;;0.50;99.90;;;;;;5039301;28;20514;-76
2023/04/10 04:37:28;;;;;;;11.03;8.10;;;0.50;99.90;;;;;;5046916;28;20522;-75
2023/04/10 04:39:55;;;;;;;12.10;7.80;;;0.50;99.90;;;;;;5044518;28;20530;-75
2023/04/10 04:42:21;;;;;;;12.40;7.20;;;0.60;99.90;;;;;;5048763;28;20572;-75
2023/04/10 04:44:50;;;;;;;12.87;8.27;;;0.50;99.90;;;;;;5039411;28;20496;-76
2023/04/10 04:47:17;;;;;;;14.07;9.00;;;0.60;99.90;;;;;;5044655;28;20755;-76
2023/04/10 04:49:44;;;;;;;11.27;6.97;;;0.70;99.90;;;;;;5036637;28;20874;-76
2023/04/10 04:52:12;;;;;;;44.77;27.60;;;0.70;99.90;;;;;;5042168;28;20854;-76
2023/04/10 04:54:40;;;;;;;25.27;20.17;;;0.90;99.90;;;;;;5047056;28;20516;-75
2023/04/10 04:57:07;;;;;;;59.63;45.03;;;1.20;99.90;;;;;;5047064;28;21046;-76
2023/04/10 04:59:34;;;;;;;17.00;11.73;;;1.30;99.90;;;;;;5049665;28;20477;-75
2023/04/10 05:02:01;;;;;;;18.87;13.73;;;1.30;99.90;;;;;;5040498;28;21403;-75
2023/04/10 05:04:28;;;;;;;18.70;13.50;;;1.30;99.90;;;;;;5044567;28;20925;-75
2023/04/10 05:06:55;;;;;;;11.27;7.63;;;1.40;99.90;;;;;;5042971;28;20514;-75
2023/04/10 05:09:23;;;;;;;12.80;8.03;;;1.50;99.90;;;;;;5046819;28;20468;-75
2023/04/10 05:11:50;;;;;;;10.63;8.63;;;1.50;99.90;;;;;;5044848;28;20457;-75
2023/04/10 05:14:17;;;;;;;72.33;11.87;;;1.60;99.90;;;;;;5038810;28;20516;-75
2023/04/10 05:16:44;;;;;;;86.37;14.00;;;1.70;99.90;;;;;;5039707;28;20530;-76
2023/04/10 05:19:11;;;;;;;240.83;26.70;;;1.70;99.90;;;;;;5044772;28;20449;-76
2023/04/10 05:21:38;;;;;;;45.40;16.40;;;1.80;99.90;;;;;;5040145;28;20512;-75
2023/04/10 05:24:05;;;;;;;100.67;19.83;;;1.80;99.90;;;;;;5042278;28;20527;-75
2023/04/10 05:26:34;;;;;;;105.00;25.73;;;1.90;99.90;;;;;;5047368;28;20466;-76
2023/04/10 05:29:01;;;;;;;82.67;22.80;;;2.00;99.90;;;;;;5046953;28;20461;-75
2023/04/10 05:31:28;;;;;;;105.77;18.80;;;2.00;99.90;;;;;;5044322;28;20467;-76
2023/04/10 05:33:54;;;;;;;56.83;13.50;;;2.00;99.90;;;;;;5033817;28;20808;-76
2023/04/10 05:36:21;;;;;;;49.57;11.70;;;2.00;99.90;;;;;;5045631;28;20469;-75
2023/04/10 05:38:48;;;;;;;34.63;11.57;;;2.20;99.90;;;;;;5040853;28;20449;-76
2023/04/10 05:41:15;;;;;;;56.33;15.67;;;2.10;99.90;;;;;;5044686;28;20921;-76
2023/04/10 05:43:43;;;;;;;46.80;20.07;;;2.20;99.90;;;;;;5039394;28;20492;-76
2023/04/10 05:46:11;;;;;;;59.20;29.00;;;2.30;99.90;;;;;;5043620;28;20464;-76
2023/04/10 05:48:39;;;;;;;50.40;26.10;;;2.40;99.90;;;;;;5043241;28;20518;-76
2023/04/10 05:51:06;;;;;;;27.13;13.37;;;2.60;99.90;;;;;;5043662;28;20491;-76
2023/04/10 05:53:33;;;;;;;81.10;38.03;;;2.80;99.90;;;;;;5048996;28;20538;-76
2023/04/10 05:56:00;;;;;;;94.20;23.27;;;2.80;99.90;;;;;;5047394;28;20497;-76
2023/04/10 05:58:29;;;;;;;60.40;17.10;;;2.90;99.90;;;;;;5039954;28;20530;-76
2023/04/10 06:00:57;;;;;;;87.13;17.77;;;3.00;99.90;;;;;;5045037;28;20475;-75
2023/04/10 06:03:26;;;;;;;21.20;10.30;;;3.10;99.90;;;;;;5044309;28;20462;-76
2023/04/10 06:05:53;;;;;;;39.20;10.90;;;3.30;99.90;;;;;;5040718;28;20535;-76
2023/04/10 06:08:21;;;;;;;58.13;14.20;;;3.40;99.90;;;;;;5043686;28;20445;-76
2023/04/10 06:10:48;;;;;;;231.90;33.73;;;3.50;99.90;;;;;;5038349;28;20460;-76
2023/04/10 06:13:15;;;;;;;230.63;41.77;;;3.70;99.90;;;;;;5044960;28;20896;-76
2023/04/10 06:15:43;;;;;;;48.40;16.07;;;3.80;99.90;;;;;;5045340;28;20514;-76
2023/04/10 06:18:11;;;;;;;30.13;14.97;;;3.80;99.90;;;;;;5045588;28;20473;-76
2023/04/10 06:20:38;;;;;;;40.10;18.37;;;3.90;99.90;;;;;;5035619;28;20477;-76
2023/04/10 06:23:05;;;;;;;106.80;27.43;;;4.10;99.90;;;;;;5042400;28;20457;-76
2023/04/10 06:25:32;;;;;;;58.20;19.20;;;4.10;99.90;;;;;;5042970;28;20519;-76
2023/04/10 06:27:59;;;;;;;48.50;14.60;;;4.20;99.90;;;;;;5043113;28;20441;-76
2023/04/10 06:30:26;;;;;;;106.20;27.00;;;4.00;99.90;;;;;;5051812;28;20983;-76
2023/04/10 06:32:53;;;;;;;190.20;36.50;;;4.30;99.90;;;;;;5036397;28;21244;-76
2023/04/10 06:35:22;;;;;;;196.60;34.13;;;4.60;99.90;;;;;;5044504;28;20449;-76
2023/04/10 06:37:49;;;;;;;114.80;24.17;;;4.60;99.90;;;;;;5040664;28;20461;-76
2023/04/10 06:40:16;;;;;;;27.00;13.00;;;4.30;99.90;;;;;;5044186;28;20464;-76
2023/04/10 06:42:43;;;;;;;99.47;26.50;;;4.10;99.90;;;;;;5034880;28;20968;-76
2023/04/10 06:45:10;;;;;;;37.03;15.17;;;4.00;99.90;;;;;;5047643;28;20522;-76
2023/04/10 06:47:37;;;;;;;111.20;22.70;;;4.10;99.90;;;;;;5049112;28;20862;-76
2023/04/10 06:50:05;;;;;;;111.23;20.70;;;4.40;99.90;;;;;;5038723;28;21116;-76
2023/04/10 06:52:33;;;;;;;43.53;14.87;;;4.30;99.90;;;;;;5036288;28;20461;-76
2023/04/10 06:55:00;;;;;;;18.23;11.03;;;4.60;99.90;;;;;;5035416;28;20971;-76
2023/04/10 06:57:28;;;;;;;28.57;14.00;;;4.50;99.90;;;;;;5046680;28;21167;-76
2023/04/10 06:59:55;;;;;;;20.97;14.53;;;4.60;99.90;;;;;;5037884;28;20551;-76
2023/04/10 07:02:21;;;;;;;35.93;12.63;;;4.50;99.90;;;;;;5045994;28;20485;-76
2023/04/10 07:04:49;;;;;;;27.97;12.77;;;4.50;99.90;;;;;;5045690;28;20940;-76
2023/04/10 07:07:18;;;;;;;28.43;12.60;;;4.80;99.90;;;;;;5036718;28;20544;-77
2023/04/10 07:09:46;;;;;;;30.33;12.17;;;4.90;99.90;;;;;;5034147;28;20467;-77
2023/04/10 07:12:13;;;;;;;23.40;13.20;;;5.00;99.90;;;;;;5045089;28;20458;-76
2023/04/10 07:14:41;;;;;;;24.00;11.40;;;5.10;99.90;;;;;;5035402;28;20539;-77
2023/04/10 07:17:08;;;;;;;18.13;12.03;;;5.10;99.90;;;;;;5037808;28;20491;-77
2023/04/10 07:19:36;;;;;;;23.33;12.70;;;5.00;99.90;;;;;;5040568;28;20461;-77
2023/04/10 07:22:04;;;;;;;17.73;12.07;;;5.20;99.90;;;;;;5033463;28;21416;-77
2023/04/10 07:24:31;;;;;;;20.43;11.67;;;5.30;99.90;;;;;;5044110;28;20630;-77
2023/04/10 07:27:00;;;;;;;23.53;13.33;;;5.20;99.90;;;;;;5037846;28;20464;-77
2023/04/10 07:29:27;;;;;;;21.70;13.00;;;5.20;99.90;;;;;;5035444;28;20484;-77
2023/04/10 07:31:55;;;;;;;18.67;13.27;;;5.30;99.90;;;;;;5041962;28;21192;-77
2023/04/10 07:34:22;;;;;;;19.00;10.47;;;5.30;99.90;;;;;;5045268;28;20484;-79
2023/04/10 07:36:49;;;;;;;40.07;13.53;;;5.50;99.90;;;;;;5037974;28;20843;-77
2023/04/10 07:39:17;;;;;;;40.17;21.87;;;5.10;99.90;;;;;;5040277;28;20465;-77
2023/04/10 07:41:44;;;;;;;37.80;24.57;;;5.50;99.90;;;;;;5039875;28;21138;-77
2023/04/10 07:44:13;;;;;;;35.23;13.10;;;5.60;99.90;;;;;;5041981;28;20529;-77
2023/04/10 07:46:40;;;;;;;33.27;19.30;;;5.50;99.90;;;;;;5040200;28;20812;-78
2023/04/10 07:49:07;;;;;;;17.80;13.53;;;5.60;99.90;;;;;;5035011;28;20574;-78
2023/04/10 07:51:34;;;;;;;21.03;13.67;;;5.70;99.90;;;;;;5035503;28;21020;-78
2023/04/10 07:54:03;;;;;;;68.97;36.33;;;5.50;99.90;;;;;;5032183;28;20476;-78
2023/04/10 07:56:30;;;;;;;80.07;15.90;;;5.60;99.90;;;;;;5044946;28;20979;-78
2023/04/10 07:59:00;;;;;;;58.07;14.50;;;5.30;99.90;;;;;;5036694;28;21014;-77
2023/04/10 08:01:28;;;;;;;27.03;12.17;;;5.50;99.90;;;;;;5039995;28;20787;-78
2023/04/10 08:03:56;;;;;;;22.30;10.87;;;5.60;99.90;;;;;;5032784;28;20965;-78
2023/04/10 08:06:23;;;;;;;29.97;17.43;;;5.80;99.90;;;;;;5037509;28;21306;-78
2023/04/10 08:08:51;;;;;;;35.17;12.60;;;6.10;99.90;;;;;;5040385;28;20491;-78
2023/04/10 08:11:26;;;;;;;20.50;14.20;;;6.00;99.90;;;;;;5040140;28;20461;-78
2023/04/10 08:13:54;;;;;;;16.10;11.33;;;6.20;99.90;;;;;;5036242;28;20519;-78
2023/04/10 08:16:24;;;;;;;18.23;12.87;;;6.70;99.90;;;;;;5034910;28;20470;-78
2023/04/10 08:18:53;;;;;;;23.33;11.57;;;6.70;99.90;;;;;;5042250;28;20968;-78
2023/04/10 08:21:21;;;;;;;12.93;10.53;;;6.20;99.90;;;;;;5040721;28;20786;-77
2023/04/10 08:23:50;;;;;;;17.83;9.20;;;6.00;99.90;;;;;;5043022;28;21036;-78
2023/04/10 08:26:18;;;;;;;16.03;11.90;;;6.10;99.90;;;;;;5042849;28;20518;-78
2023/04/10 08:28:48;;;;;;;15.90;12.00;;;6.50;99.90;;;;;;5040419;28;20896;-77
2023/04/10 08:31:15;;;;;;;14.63;12.33;;;6.80;99.90;;;;;;5031334;28;20785;-77
2023/04/10 08:33:42;;;;;;;16.80;13.13;;;7.10;99.90;;;;;;5025682;28;20454;-78
2023/04/10 08:36:11;;;;;;;18.60;14.93;;;7.50;99.90;;;;;;5039389;28;20526;-77
2023/04/10 08:38:38;;;;;;;14.60;12.03;;;7.40;99.90;;;;;;5040213;28;20472;-77
2023/04/10 08:41:06;;;;;;;14.20;9.80;;;7.30;99.90;;;;;;5044445;28;20515;-77
2023/04/10 08:43:34;;;;;;;12.27;9.60;;;7.00;99.90;;;;;;5033951;28;20901;-77
2023/04/10 08:46:01;;;;;;;15.90;12.57;;;7.20;99.90;;;;;;5030006;28;20569;-77
2023/04/10 08:48:34;;;;;;;13.23;11.93;;;7.20;99.90;;;;;;5040640;28;20523;-77
2023/04/10 08:51:05;;;;;;;15.90;13.00;;;7.50;99.90;;;;;;5038325;28;20491;-77
2023/04/10 08:53:40;;;;;;;17.80;14.10;;;7.70;99.90;;;;;;5043017;28;20461;-78
2023/04/10 08:56:08;;;;;;;18.00;14.50;;;7.50;99.90;;;;;;5041175;28;20508;-78
2023/04/10 08:58:36;;;;;;;17.33;13.93;;;7.40;99.90;;;;;;5047002;28;20530;-78
2023/04/10 09:01:04;;;;;;;15.53;13.90;;;7.30;99.90;;;;;;5037441;28;20465;-78
2023/04/10 09:03:32;;;;;;;16.40;13.00;;;7.30;99.90;;;;;;5041318;28;20461;-78
2023/04/10 09:06:02;;;;;;;17.90;14.40;;;7.40;99.90;;;;;;5034537;28;20512;-78
2023/04/10 09:08:29;;;;;;;19.80;14.80;;;7.60;99.90;;;;;;5045257;28;20844;-78
2023/04/10 09:10:58;;;;;;;18.83;14.07;;;7.20;99.90;;;;;;5036184;28;20532;-77
2023/04/10 09:13:39;;;;;;;23.80;17.27;;;7.10;99.90;;;;;;5038947;28;20566;-77
2023/04/10 09:16:07;;;;;;;24.60;15.47;;;7.70;99.90;;;;;;5039481;28;20456;-78
2023/04/10 09:18:49;;;;;;;21.97;15.77;;;7.30;99.90;;;;;;5042771;28;20520;-78
2023/04/10 09:21:18;;;;;;;19.93;15.70;;;7.70;99.90;;;;;;5040288;28;20952;-78
2023/04/10 09:23:46;;;;;;;19.30;15.90;;;7.60;99.90;;;;;;5035467;28;20530;-78
2023/04/10 09:26:28;;;;;;;20.10;15.37;;;8.00;99.90;;;;;;5038517;28;20522;-78
2023/04/10 09:29:00;;;;;;;19.27;15.23;;;8.20;99.90;;;;;;5039834;28;20518;-78
2023/04/10 09:31:29;;;;;;;18.30;15.00;;;8.20;99.90;;;;;;5042918;28;21337;-78
2023/04/10 09:34:14;;;;;;;19.67;14.50;;;8.20;99.90;;;;;;5038808;28;20446;-78
2023/04/10 09:36:41;;;;;;;17.40;14.83;;;8.30;99.90;;;;;;5042183;28;20476;-78
2023/04/10 09:39:10;;;;;;;21.10;17.13;;;8.40;99.90;;;;;;5036304;28;20507;-78
2023/04/10 09:41:49;;;;;;;22.63;15.97;;;8.50;99.90;;;;;;5041637;28;20536;-78
2023/04/10 09:44:19;;;;;;;17.77;13.90;;;8.10;99.90;;;;;;5041145;28;20467;-78
2023/04/10 09:46:48;;;;;;;17.13;14.07;;;7.70;99.90;;;;;;5034650;28;20564;-78
2023/04/10 09:49:15;;;;;;;16.67;13.07;;;7.60;99.90;;;;;;5041562;28;20457;-78
2023/04/10 09:51:42;;;;;;;18.93;15.03;;;7.70;99.90;;;;;;5049581;28;20921;-78
2023/04/10 09:54:09;;;;;;;17.23;14.80;;;8.00;99.90;;;;;;5048162;28;20466;-78
2023/04/10 09:56:39;;;;;;;20.53;16.13;;;8.40;99.90;;;;;;5041821;28;21014;-78
2023/04/10 09:59:08;;;;;;;21.43;15.20;;;8.60;99.90;;;;;;5037679;28;20507;-78
2023/04/10 10:01:39;;;;;;;18.37;14.97;;;8.30;99.90;;;;;;5045002;28;20986;-78
2023/04/10 10:04:08;;;;;;;17.00;14.80;;;8.10;99.90;;;;;;5048273;28;20484;-78
2023/04/10 10:06:38;;;;;;;23.70;18.37;;;8.20;99.90;;;;;;5040269;28;20769;-78
2023/04/10 10:09:05;;;;;;;17.70;14.43;;;8.50;99.90;;;;;;5044802;28;20461;-77
2023/04/10 10:11:34;;;;;;;18.53;13.97;;;8.30;99.90;;;;;;5044148;28;20565;-78
2023/04/10 10:14:04;;;;;;;19.23;16.10;;;8.30;99.90;;;;;;5045258;28;21056;-77
2023/04/10 10:16:38;;;;;;;24.47;17.40;;;8.50;99.90;;;;;;5043240;28;20492;-77
2023/04/10 10:19:10;;;;;;;21.27;17.40;;;8.40;99.90;;;;;;5042216;28;20465;-77
2023/04/10 10:21:38;;;;;;;21.00;15.77;;;8.50;99.90;;;;;;5043275;28;20467;-77
2023/04/10 10:24:08;;;;;;;20.33;15.23;;;8.50;99.90;;;;;;5038730;28;20519;-77
2023/04/10 10:26:36;;;;;;;20.47;13.73;;;8.60;99.90;;;;;;5043763;28;20465;-77
2023/04/10 10:29:05;;;;;;;19.03;13.77;;;8.80;99.90;;;;;;5048854;28;20537;-77
2023/04/10 10:31:35;;;;;;;21.70;16.73;;;8.80;99.90;;;;;;5041741;28;20457;-78
2023/04/10 10:34:06;;;;;;;23.00;16.30;;;8.90;99.90;;;;;;5040842;28;21043;-78
2023/04/10 10:36:33;;;;;;;21.00;14.70;;;9.00;99.90;;;;;;5030508;28;20457;-77
2023/04/10 10:39:17;;;;;;;19.23;14.17;;;9.10;99.90;;;;;;5032051;28;20520;-77
2023/04/10 10:41:53;;;;;;;21.23;15.93;;;9.00;99.90;;;;;;5032042;28;20547;-78
2023/04/10 10:44:29;;;;;;;17.37;12.90;;;9.00;99.90;;;;;;5037477;28;21016;-78
2023/04/10 10:47:07;;;;;;;19.47;15.70;;;9.20;99.90;;;;;;5040670;28;20456;-78
2023/04/10 10:49:55;;;;;;;14.33;12.33;;;9.30;99.90;;;;;;5038486;28;20486;-78
2023/04/10 10:52:38;;;;;;;14.47;12.43;;;9.40;99.90;;;;;;5043407;28;20937;-78
2023/04/10 10:55:31;;;;;;;17.80;15.13;;;9.60;99.90;;;;;;5046256;28;20481;-77
2023/04/10 10:58:00;;;;;;;15.70;12.80;;;9.60;99.90;;;;;;5040084;28;20572;-77
2023/04/10 11:00:47;;;;;;;16.77;12.97;;;9.60;99.90;;;;;;5031341;28;20438;-77
2023/04/10 11:03:31;;;;;;;12.10;9.97;;;9.90;99.90;;;;;;5040338;28;21001;-77
2023/04/10 11:05:59;;;;;;;15.93;14.23;;;10.30;99.90;;;;;;5038091;28;20462;-77
2023/04/10 11:08:51;;;;;;;15.83;13.53;;;10.50;99.90;;;;;;5041911;28;20557;-77
2023/04/10 11:11:22;;;;;;;16.97;12.93;;;10.80;99.90;;;;;;5033445;28;20473;-77
2023/04/10 11:14:19;;;;;;;14.13;11.07;;;10.60;99.90;;;;;;5041160;28;20457;-77
2023/04/10 11:16:47;;;;;;;12.20;10.57;;;10.70;99.90;;;;;;5007723;28;21108;-77
2023/04/10 11:19:18;;;;;;;13.33;8.87;;;11.10;99.90;;;;;;5031409;28;20574;-78
2023/04/10 11:22:07;;;;;;;13.27;11.87;;;11.20;99.90;;;;;;5036183;28;20457;-78
2023/04/10 11:24:56;;;;;;;12.80;10.43;;;11.30;99.90;;;;;;5042624;28;20495;-78
2023/04/10 11:27:45;;;;;;;10.53;8.70;;;11.10;99.90;;;;;;5030577;28;20458;-78
2023/04/10 11:30:28;;;;;;;11.50;8.73;;;11.20;99.90;;;;;;5050460;28;20487;-79
2023/04/10 11:32:56;;;;;;;9.13;8.23;;;11.60;99.90;;;;;;5039931;28;20454;-79
2023/04/10 11:35:26;;;;;;;10.30;8.20;;;11.70;99.90;;;;;;5027949;28;20573;-77
2023/04/10 11:38:12;;;;;;;9.43;8.50;;;11.50;99.90;;;;;;5043198;28;20479;-78
2023/04/10 11:40:58;;;;;;;11.87;8.57;;;11.80;99.90;;;;;;5046451;28;20469;-79
2023/04/10 11:43:25;;;;;;;10.90;9.20;;;12.00;99.90;;;;;;5043383;28;20465;-79
2023/04/10 11:46:03;;;;;;;9.70;8.70;;;11.60;99.90;;;;;;5043311;28;20453;-78
2023/04/10 11:48:31;;;;;;;8.03;6.80;;;11.80;99.90;;;;;;5039830;28;20456;-79
2023/04/10 11:51:06;;;;;;;8.70;7.73;;;11.70;99.90;;;;;;5039074;28;20469;-79
2023/04/10 11:53:33;;;;;;;8.47;7.47;;;11.50;99.90;;;;;;5046757;28;20461;-79
2023/04/10 11:56:00;;;;;;;10.40;9.20;;;11.70;99.90;;;;;;5038117;28;20840;-78
2023/04/10 11:58:29;;;;;;;7.90;6.87;;;11.80;99.90;;;;;;5038496;28;20513;-79
2023/04/10 12:00:57;;;;;;;9.03;8.00;;;11.90;99.90;;;;;;5030795;28;20476;-79
2023/04/10 12:03:36;;;;;;;8.77;7.63;;;12.10;99.90;;;;;;5040918;28;20926;-79
2023/04/10 12:06:06;;;;;;;6.70;6.10;;;12.50;99.90;;;;;;5034582;28;20841;-79
2023/04/10 12:08:34;;;;;;;7.00;5.80;;;12.60;99.90;;;;;;5042683;28;20943;-79
2023/04/10 12:11:02;;;;;;;7.63;6.90;;;12.30;99.80;;;;;;5039514;28;20470;-79
2023/04/10 12:13:30;;;;;;;5.90;5.30;;;12.50;99.20;;;;;;5036679;28;20486;-79
2023/04/10 12:16:01;;;;;;;7.37;6.63;;;12.20;98.30;;;;;;5043728;28;20492;-79
2023/04/10 12:18:29;;;;;;;9.77;8.77;;;12.40;99.90;;;;;;5042166;28;20551;-79
2023/04/10 12:20:58;;;;;;;7.93;6.97;;;12.70;99.90;;;;;;5043437;28;20536;-79
2023/04/10 12:23:27;;;;;;;7.83;7.03;;;12.40;99.90;;;;;;5041169;28;20496;-79
2023/04/10 12:26:07;;;;;;;8.80;7.77;;;12.40;99.90;;;;;;5030714;28;20437;-79
2023/04/10 12:28:34;;;;;;;7.67;6.97;;;12.50;99.30;;;;;;5043230;28;20957;-79
2023/04/10 12:31:02;;;;;;;7.10;6.40;;;12.40;99.90;;;;;;5030439;28;21108;-79
2023/04/10 12:33:29;;;;;;;7.20;6.60;;;12.30;99.90;;;;;;5029474;28;20470;-79
2023/04/10 12:35:56;;;;;;;7.77;7.03;;;12.40;99.50;;;;;;5028528;28;20964;-79
2023/04/10 12:38:38;;;;;;;7.90;6.80;;;12.20;99.60;;;;;;5039694;28;20814;-79
2023/04/10 12:41:06;;;;;;;7.10;6.33;;;12.20;99.40;;;;;;5041744;28;20549;-79
2023/04/10 12:43:35;;;;;;;8.83;7.93;;;12.10;99.30;;;;;;5043380;28;21152;-79
2023/04/10 12:46:03;;;;;;;6.10;5.50;;;12.00;99.10;;;;;;5042666;28;20457;-79
2023/04/10 12:48:30;;;;;;;8.20;7.40;;;12.40;99.90;;;;;;5041706;28;20573;-79
2023/04/10 12:50:57;;;;;;;6.57;5.83;;;12.30;99.50;;;;;;5044861;28;20549;-79
2023/04/10 12:53:25;;;;;;;6.83;5.93;;;12.50;98.00;;;;;;5044563;28;20465;-79